Time;durP1;ratioP1;P1;durP2;ratioP2;P2;SDS_P1;SDS_P2;PMS_P1;PMS_P2;Temp;Humidity;BMP_temperature;BMP_pressure;BME280_temperature;BME280_humidity;BME280_pressure;Samples;Min_cycle;Max_cycle;Signal;HPM_P1;HPM_P2
2022/08/30 00:02:14;;;;;;;7.73;3.20;;;19.40;64.60;;;;;;21165542;28;20254;-65
2022/08/30 00:12:16;;;;;;;7.40;3.10;;;19.30;65.10;;;;;;21164963;28;20213;-67
2022/08/30 00:22:17;;;;;;;5.40;3.10;;;19.20;65.60;;;;;;21163804;28;20240;-71
2022/08/30 00:32:20;;;;;;;5.57;2.80;;;19.10;66.00;;;;;;21163283;28;20577;-64
2022/08/30 00:42:24;;;;;;;5.10;3.00;;;18.90;66.60;;;;;;21163175;28;20273;-64
2022/08/30 00:52:25;;;;;;;6.00;2.90;;;18.80;67.90;;;;;;21162361;28;20206;-65
2022/08/30 01:02:29;;;;;;;3.87;2.50;;;18.70;67.60;;;;;;21178843;28;20243;-64
2022/08/30 01:12:31;;;;;;;6.33;3.00;;;18.50;68.00;;;;;;21179355;28;20198;-64
2022/08/30 01:22:48;;;;;;;5.70;3.00;;;18.40;68.10;;;;;;21178048;28;20237;-64
2022/08/30 01:32:55;;;;;;;8.20;2.80;;;18.30;68.50;;;;;;21177224;28;20237;-64
2022/08/30 01:42:57;;;;;;;6.50;3.03;;;18.20;68.80;;;;;;21176874;28;20236;-64
2022/08/30 01:52:59;;;;;;;6.27;2.90;;;18.10;69.30;;;;;;21175941;28;20205;-64
2022/08/30 02:03:01;;;;;;;8.87;3.40;;;18.00;69.60;;;;;;21174964;28;20242;-64
2022/08/30 02:13:02;;;;;;;7.40;3.07;;;17.80;70.20;;;;;;21173730;28;20301;-64
2022/08/30 02:23:04;;;;;;;7.13;3.27;;;17.80;70.50;;;;;;21173332;28;20235;-64
2022/08/30 02:33:06;;;;;;;6.40;2.80;;;17.80;70.80;;;;;;21172796;28;20747;-68
2022/08/30 02:43:08;;;;;;;5.90;3.30;;;17.60;70.40;;;;;;21172186;28;20701;-64
2022/08/30 02:53:10;;;;;;;5.00;3.20;;;17.50;71.50;;;;;;21171132;28;20248;-66
2022/08/30 03:03:16;;;;;;;4.40;2.90;;;17.40;72.00;;;;;;21170688;28;20734;-65
2022/08/30 03:13:18;;;;;;;7.50;3.20;;;17.30;72.50;;;;;;21169596;28;20210;-64
2022/08/30 03:23:21;;;;;;;5.30;3.10;;;17.20;73.20;;;;;;21168088;28;20229;-68
2022/08/30 03:33:23;;;;;;;8.40;3.20;;;17.10;73.70;;;;;;21167592;28;20237;-64
2022/08/30 03:43:25;;;;;;;5.53;3.10;;;17.10;74.10;;;;;;21149068;28;20239;-64
2022/08/30 03:53:26;;;;;;;9.77;3.10;;;16.90;74.30;;;;;;21148033;28;20201;-67
2022/08/30 04:03:28;;;;;;;9.60;3.10;;;16.90;74.80;;;;;;21165073;28;20241;-64
2022/08/30 04:13:30;;;;;;;9.83;3.50;;;16.90;75.40;;;;;;21165051;28;20259;-65
2022/08/30 04:23:32;;;;;;;7.87;4.17;;;16.70;76.30;;;;;;21163924;28;20243;-66
2022/08/30 04:33:34;;;;;;;7.47;3.50;;;16.60;76.90;;;;;;21162490;28;20263;-64
2022/08/30 04:43:39;;;;;;;6.00;3.40;;;16.50;77.20;;;;;;21162934;28;20243;-69
2022/08/30 04:53:41;;;;;;;8.13;3.50;;;16.50;77.60;;;;;;21162318;28;20202;-64
2022/08/30 05:03:43;;;;;;;13.00;3.57;;;16.50;77.90;;;;;;21161678;28;20577;-63
2022/08/30 05:13:45;;;;;;;13.48;4.80;;;16.40;78.60;;;;;;21160684;28;20435;-66
2022/08/30 05:23:48;;;;;;;21.60;4.67;;;16.50;79.60;;;;;;21142332;28;20236;-65
2022/08/30 05:33:52;;;;;;;9.10;3.80;;;16.20;79.70;;;;;;21159461;28;20766;-64
2022/08/30 05:43:55;;;;;;;14.70;3.90;;;16.30;79.90;;;;;;21159043;28;20236;-63
2022/08/30 05:53:58;;;;;;;10.17;3.63;;;16.40;79.90;;;;;;21130323;28;20292;-65
2022/08/30 06:04:02;;;;;;;16.30;4.40;;;16.60;79.70;;;;;;21139204;28;20223;-64
2022/08/30 06:14:05;;;;;;;16.43;3.87;;;16.70;78.70;;;;;;21088064;28;20206;-64
2022/08/30 06:24:09;;;;;;;11.97;4.07;;;16.90;78.10;;;;;;21088833;28;20253;-64
2022/08/30 06:34:12;;;;;;;12.60;3.70;;;17.10;77.00;;;;;;21088380;28;20244;-63
2022/08/30 06:44:13;;;;;;;8.30;3.70;;;17.30;76.40;;;;;;21091072;28;20591;-67
2022/08/30 06:54:15;;;;;;;16.40;3.77;;;17.60;76.00;;;;;;21085729;28;20221;-65
2022/08/30 07:04:17;;;;;;;9.20;3.67;;;18.10;75.10;;;;;;21086773;28;20604;-66
2022/08/30 07:14:20;;;;;;;5.70;3.17;;;18.40;74.10;;;;;;21087758;28;20211;-69
2022/08/30 07:24:22;;;;;;;8.63;3.73;;;18.80;72.60;;;;;;21085716;28;20228;-64
2022/08/30 07:34:23;;;;;;;12.53;4.00;;;19.10;72.80;;;;;;21087389;28;20782;-64
2022/08/30 07:44:28;;;;;;;8.23;3.17;;;19.40;72.20;;;;;;21089346;28;20216;-64
2022/08/30 07:54:29;;;;;;;7.23;3.23;;;19.70;71.60;;;;;;21121540;28;20566;-64
2022/08/30 08:04:33;;;;;;;8.07;3.17;;;19.90;71.10;;;;;;21095117;28;20209;-63
2022/08/30 08:14:35;;;;;;;7.03;3.40;;;20.30;70.90;;;;;;21163176;28;20215;-64
2022/08/30 08:24:37;;;;;;;5.87;3.17;;;20.60;70.40;;;;;;21121970;28;20217;-70
2022/08/30 08:34:40;;;;;;;10.53;3.80;;;20.80;70.10;;;;;;21092082;28;20230;-66
2022/08/30 08:45:03;;;;;;;9.80;3.20;;;21.10;69.70;;;;;;21108493;28;20217;-67
2022/08/30 08:55:17;;;;;;;8.83;3.50;;;21.40;69.50;;;;;;21086558;28;20679;-67
2022/08/30 09:05:22;;;;;;;9.53;4.83;;;21.70;69.30;;;;;;21161711;28;20197;-67
2022/08/30 09:15:28;;;;;;;9.27;3.70;;;21.90;68.90;;;;;;21163150;28;20453;-67
2022/08/30 09:25:31;;;;;;;7.87;3.60;;;22.30;68.30;;;;;;21173055;28;20431;-68
2022/08/30 09:35:45;;;;;;;5.83;3.13;;;22.90;66.60;;;;;;21175203;28;20238;-67
2022/08/30 09:46:04;;;;;;;13.70;3.20;;;22.90;66.60;;;;;;21174921;28;20595;-70
2022/08/30 09:56:15;;;;;;;9.93;3.43;;;23.20;66.10;;;;;;21156112;28;20234;-64
2022/08/30 10:06:51;;;;;;;8.30;3.27;;;23.50;65.40;;;;;;21089144;28;20244;-64
2022/08/30 10:17:12;;;;;;;5.63;3.00;;;23.60;64.50;;;;;;21049512;28;20238;-63
2022/08/30 10:27:24;;;;;;;9.73;3.53;;;23.80;63.10;;;;;;21086793;28;20234;-74
2022/08/30 10:37:30;;;;;;;5.23;3.00;;;24.00;62.30;;;;;;21087629;28;20230;-70
2022/08/30 10:47:59;;;;;;;8.53;3.67;;;24.20;61.70;;;;;;21085713;28;20263;-74
2022/08/30 10:58:05;;;;;;;5.30;2.30;;;24.30;60.60;;;;;;21075071;28;20231;-64
2022/08/30 11:08:42;;;;;;;4.20;2.70;;;24.40;59.40;;;;;;21066846;28;20206;-73
2022/08/30 11:18:45;;;;;;;5.73;3.00;;;24.50;59.00;;;;;;21044075;28;20247;-67
2022/08/30 11:29:01;;;;;;;5.63;2.90;;;24.60;58.40;;;;;;21102998;28;20254;-68
2022/08/30 11:39:32;;;;;;;5.53;2.63;;;24.70;57.60;;;;;;21081382;28;20467;-62
2022/08/30 11:50:06;;;;;;;4.33;2.63;;;24.80;57.20;;;;;;21080620;28;20659;-63
2022/08/30 12:00:35;;;;;;;4.90;2.90;;;24.90;57.60;;;;;;21080059;28;20275;-62
2022/08/30 12:10:47;;;;;;;4.30;2.73;;;25.10;57.00;;;;;;21078792;28;20234;-62
2022/08/30 12:20:49;;;;;;;6.10;3.40;;;25.30;56.20;;;;;;21080989;28;20226;-64
2022/08/30 12:30:52;;;;;;;4.00;3.10;;;25.60;55.40;;;;;;21121372;28;20264;-70
2022/08/30 12:40:58;;;;;;;4.73;2.60;;;25.70;54.70;;;;;;21124336;28;20234;-62
2022/08/30 12:51:00;;;;;;;5.60;2.90;;;26.00;53.30;;;;;;21076430;28;20207;-70
2022/08/30 13:01:31;;;;;;;5.47;3.07;;;26.20;51.70;;;;;;21109023;28;20723;-71
2022/08/30 13:11:33;;;;;;;6.50;3.00;;;26.40;50.80;;;;;;21160997;28;20206;-64
2022/08/30 13:21:56;;;;;;;4.63;3.00;;;26.40;49.60;;;;;;21159193;28;20230;-63
2022/08/30 13:31:58;;;;;;;3.57;2.70;;;26.40;49.10;;;;;;21156488;28;20237;-66
2022/08/30 13:42:00;;;;;;;5.23;2.73;;;26.50;48.20;;;;;;21141143;28;20230;-64
2022/08/30 13:52:23;;;;;;;3.37;3.07;;;26.60;47.70;;;;;;21158378;28;20266;-70
2022/08/30 14:02:25;;;;;;;3.53;2.87;;;26.70;47.40;;;;;;21162496;28;20260;-70
2022/08/30 14:12:27;;;;;;;6.60;2.50;;;27.00;46.60;;;;;;21173846;28;20658;-64
2022/08/30 14:22:49;;;;;;;7.97;2.60;;;28.30;45.10;;;;;;21172072;28;20233;-65
2022/08/30 14:32:51;;;;;;;5.25;2.50;;;29.10;43.80;;;;;;21171389;28;20732;-64
2022/08/30 14:42:53;;;;;;;5.00;2.78;;;28.80;43.70;;;;;;21170758;28;20346;-65
2022/08/30 14:52:55;;;;;;;4.07;2.37;;;28.30;43.60;;;;;;21170114;28;20289;-69
2022/08/30 15:02:56;;;;;;;3.40;2.47;;;27.80;43.90;;;;;;21169669;28;20578;-65
2022/08/30 15:12:58;;;;;;;5.10;3.70;;;27.30;44.00;;;;;;21168883;28;20279;-64
2022/08/30 15:23:05;;;;;;;3.70;2.70;;;27.40;44.10;;;;;;21168660;28;20785;-64
2022/08/30 15:33:08;;;;;;;4.90;3.43;;;27.10;44.50;;;;;;21167981;28;20233;-68
2022/08/30 15:43:09;;;;;;;4.17;2.67;;;26.90;44.80;;;;;;21167134;28;20252;-69
2022/08/30 15:53:11;;;;;;;4.27;2.60;;;26.70;45.20;;;;;;21165867;28;20225;-66
2022/08/30 16:03:13;;;;;;;6.90;2.77;;;26.60;45.60;;;;;;21165225;28;20229;-70
2022/08/30 16:13:16;;;;;;;5.10;2.80;;;26.50;45.60;;;;;;21164745;28;20202;-65
2022/08/30 16:23:18;;;;;;;3.40;2.67;;;26.50;46.50;;;;;;21164032;28;20358;-66
2022/08/30 16:33:20;;;;;;;7.73;3.20;;;26.40;46.40;;;;;;21162384;28;20238;-65
2022/08/30 16:43:22;;;;;;;8.57;3.50;;;26.40;46.90;;;;;;21162464;28;20237;-67
2022/08/30 16:53:25;;;;;;;7.00;3.10;;;26.20;47.10;;;;;;21162579;28;20210;-67
2022/08/30 17:03:27;;;;;;;4.60;2.90;;;26.10;47.20;;;;;;21158580;28;20233;-66
2022/08/30 17:13:31;;;;;;;6.03;3.37;;;25.90;47.50;;;;;;21099471;28;20328;-71
2022/08/30 17:23:34;;;;;;;5.93;3.17;;;25.80;47.60;;;;;;21137798;28;20239;-64
2022/08/30 17:33:39;;;;;;;5.47;2.70;;;25.70;47.80;;;;;;21086987;28;20273;-66
2022/08/30 17:43:41;;;;;;;4.50;3.47;;;25.60;48.50;;;;;;21104751;28;20237;-65
2022/08/30 17:53:42;;;;;;;5.70;2.93;;;25.50;48.20;;;;;;21176019;28;20213;-64
2022/08/30 18:03:45;;;;;;;4.00;2.70;;;25.40;48.50;;;;;;21174562;28;20234;-66
2022/08/30 18:13:46;;;;;;;7.37;3.00;;;25.30;48.80;;;;;;21172982;28;20204;-67
2022/08/30 18:23:49;;;;;;;7.70;2.67;;;25.10;49.10;;;;;;21107176;28;20295;-64
2022/08/30 18:33:51;;;;;;;8.97;2.67;;;25.00;49.50;;;;;;21088300;28;20731;-68
2022/08/30 18:43:53;;;;;;;15.27;3.20;;;24.80;49.80;;;;;;21087384;28;20230;-67
2022/08/30 18:54:15;;;;;;;11.43;3.23;;;24.70;50.40;;;;;;21085477;28;20259;-64
2022/08/30 19:04:17;;;;;;;7.57;3.20;;;24.50;50.90;;;;;;21083611;28;20722;-65
2022/08/30 19:14:23;;;;;;;9.00;2.90;;;24.30;51.40;;;;;;21151975;28;20202;-66
2022/08/30 19:24:28;;;;;;;6.40;2.90;;;24.20;51.90;;;;;;21092552;28;20273;-66
2022/08/30 19:34:30;;;;;;;3.87;2.90;;;24.00;52.50;;;;;;21076015;28;20257;-69
2022/08/30 19:44:32;;;;;;;5.90;3.50;;;23.90;52.80;;;;;;21074763;28;20600;-65
2022/08/30 19:54:35;;;;;;;9.03;3.10;;;23.70;53.20;;;;;;21073911;28;20576;-67
2022/08/30 20:04:37;;;;;;;5.43;3.10;;;23.60;53.60;;;;;;21072538;28;20230;-68
2022/08/30 20:14:45;;;;;;;6.53;2.90;;;23.50;54.00;;;;;;21072281;28;20794;-63
2022/08/30 20:24:47;;;;;;;9.40;3.20;;;23.40;54.40;;;;;;21144977;28;20234;-64
2022/08/30 20:34:50;;;;;;;5.47;3.00;;;23.30;54.60;;;;;;21155200;28;20225;-64
2022/08/30 20:44:52;;;;;;;3.20;2.90;;;23.20;55.60;;;;;;21154856;28;20572;-65
2022/08/30 20:54:54;;;;;;;3.47;2.80;;;23.10;55.40;;;;;;21154143;28;20247;-67
2022/08/30 21:04:56;;;;;;;4.57;3.20;;;23.00;55.70;;;;;;21153077;28;20230;-64
2022/08/30 21:14:58;;;;;;;4.00;3.10;;;22.90;55.90;;;;;;21162130;28;20209;-65
2022/08/30 21:25:05;;;;;;;6.80;3.30;;;22.80;56.20;;;;;;21094149;28;20256;-66
2022/08/30 21:45:28;;;;;;;4.73;3.30;;;22.50;56.90;;;;;;21088830;28;20955;-68
2022/08/30 21:55:29;;;;;;;7.73;3.10;;;22.80;57.50;;;;;;21091761;28;20198;-64
2022/08/30 22:05:31;;;;;;;11.73;3.43;;;22.40;57.70;;;;;;21090745;28;20250;-66
2022/08/30 22:15:33;;;;;;;4.50;3.37;;;22.30;58.10;;;;;;21090117;28;20210;-65
2022/08/30 22:25:35;;;;;;;3.90;2.90;;;22.20;58.40;;;;;;21089531;28;20237;-65
2022/08/30 22:35:37;;;;;;;6.60;3.87;;;22.00;58.50;;;;;;21070391;28;20242;-65
2022/08/30 22:45:39;;;;;;;5.23;3.30;;;21.90;59.00;;;;;;21087815;28;20729;-66
2022/08/30 22:55:41;;;;;;;4.87;3.33;;;21.80;59.50;;;;;;21087278;28;20209;-65
2022/08/30 23:16:06;;;;;;;5.57;3.67;;;21.60;60.20;;;;;;21041407;23;20228;-66
